createdAt,value
2023-04-18T00:00:12.411Z,100168.41
2023-04-18T00:03:27.575Z,100171.59
2023-04-18T00:06:42.382Z,100176.00
2023-04-18T00:09:44.790Z,100173.78
2023-04-18T00:12:59.398Z,100174.38
2023-04-18T00:16:07.922Z,100171.69
2023-04-18T00:19:22.377Z,100177.97
2023-04-18T00:22:37.413Z,100183.34
2023-04-18T00:25:52.367Z,100183.66
2023-04-18T00:29:03.015Z,100181.56
2023-04-18T00:32:11.413Z,100186.44
2023-04-18T00:35:26.362Z,100182.78
2023-04-18T00:38:34.411Z,100185.47
2023-04-18T00:41:49.370Z,100182.87
2023-04-18T00:44:51.436Z,100194.72
2023-04-18T00:48:06.408Z,100178.19
2023-04-18T00:51:09.869Z,100185.97
2023-04-18T00:54:28.369Z,100187.38
2023-04-18T00:57:50.370Z,100188.16
2023-04-18T01:00:52.250Z,100186.56
2023-04-18T01:04:07.439Z,100183.06
2023-04-18T01:07:22.381Z,100180.22
2023-04-18T01:10:31.383Z,100181.59
2023-04-18T01:13:46.382Z,100181.00
2023-04-18T01:16:54.634Z,100177.81
2023-04-18T01:20:10.373Z,100173.03
2023-04-18T01:23:12.699Z,100167.06
2023-04-18T01:26:27.378Z,100171.34
2023-04-18T01:29:36.291Z,100171.03
2023-04-18T01:32:53.485Z,100170.25
2023-04-18T01:35:55.394Z,100175.00
2023-04-18T01:39:10.426Z,100173.22
2023-04-18T01:42:12.712Z,100174.03
2023-04-18T01:45:27.392Z,100173.53
2023-04-18T01:48:29.329Z,100176.22
2023-04-18T01:51:45.396Z,100172.44
2023-04-18T01:55:00.443Z,100175.91
2023-04-18T01:58:02.305Z,100177.53
2023-04-18T02:01:17.421Z,100181.00
2023-04-18T02:04:19.344Z,100174.62
2023-04-18T02:07:34.413Z,100176.50
2023-04-18T02:10:43.116Z,100175.34
2023-04-18T02:13:59.371Z,100187.38
2023-04-18T02:17:14.695Z,100181.69
2023-04-18T02:20:23.381Z,100184.38
2023-04-18T02:23:32.182Z,100186.00
2023-04-18T02:26:47.383Z,100172.84
2023-04-18T02:29:49.293Z,100187.47
2023-04-18T02:33:04.427Z,100177.03
2023-04-18T02:36:06.713Z,100186.66
2023-04-18T02:39:21.378Z,100193.03
2023-04-18T02:42:23.318Z,100196.22
2023-04-18T02:45:38.405Z,100191.44
2023-04-18T02:48:40.569Z,100188.38
2023-04-18T02:51:55.381Z,100190.84
2023-04-18T02:54:57.330Z,100187.97
2023-04-18T02:58:12.428Z,100192.34
2023-04-18T03:01:15.421Z,100192.34
2023-04-18T03:04:30.384Z,100174.03
2023-04-18T03:07:39.009Z,100198.69
2023-04-18T03:10:54.225Z,100193.03
2023-04-18T03:14:04.408Z,100197.09
2023-04-18T03:17:19.702Z,100198.69
2023-04-18T03:20:28.407Z,100192.03
2023-04-18T03:23:43.412Z,100197.63
2023-04-18T03:26:52.416Z,100198.69
2023-04-18T03:30:08.383Z,100203.00
2023-04-18T03:33:23.419Z,100197.63
2023-04-18T03:36:38.376Z,100205.69
2023-04-18T03:39:46.397Z,100206.25
2023-04-18T03:42:55.066Z,100206.75
2023-04-18T03:46:09.411Z,100208.38
2023-04-18T03:49:18.187Z,100208.38
2023-04-18T03:52:28.527Z,100205.75
2023-04-18T03:55:45.383Z,100204.25
2023-04-18T03:58:54.135Z,100212.81
2023-04-18T04:02:02.551Z,100212.81
2023-04-18T04:05:11.108Z,100222.28
2023-04-18T04:08:28.120Z,100230.91
2023-04-18T04:11:43.378Z,100223.34
2023-04-18T04:15:05.403Z,100235.69
2023-04-18T04:18:20.382Z,100234.09
2023-04-18T04:21:29.281Z,100229.31
2023-04-18T04:24:44.388Z,100233.91
2023-04-18T04:27:46.230Z,100240.84
2023-04-18T04:31:01.374Z,100243.63
2023-04-18T04:34:16.588Z,100251.16
2023-04-18T04:37:31.376Z,100240.50
2023-04-18T04:40:40.102Z,100245.81
2023-04-18T04:43:49.369Z,100250.37
2023-04-18T04:47:04.385Z,100250.66
2023-04-18T04:50:14.826Z,100253.34
2023-04-18T04:53:23.407Z,100251.78
2023-04-18T04:56:32.536Z,100251.25
2023-04-18T04:59:41.418Z,100257.72
2023-04-18T05:02:52.758Z,100256.63
2023-04-18T05:06:07.396Z,100254.31
2023-04-18T05:09:09.360Z,100262.66
2023-04-18T05:12:24.384Z,100262.16
2023-04-18T05:15:46.345Z,100271.81
2023-04-18T05:19:01.417Z,100270.53
2023-04-18T05:22:16.476Z,100272.84
2023-04-18T05:25:31.422Z,100267.66
2023-04-18T05:28:39.786Z,100280.19
2023-04-18T05:31:55.499Z,100274.25
2023-04-18T05:34:57.433Z,100279.44
2023-04-18T05:38:12.388Z,100281.16
2023-04-18T05:41:20.431Z,100282.38
2023-04-18T05:44:29.783Z,100285.25
2023-04-18T05:47:44.447Z,100283.88
2023-04-18T05:50:52.415Z,100282.69
2023-04-18T05:54:01.085Z,100292.84
2023-04-18T05:57:15.408Z,100278.91
2023-04-18T06:00:17.973Z,100275.91
2023-04-18T06:03:32.596Z,100285.28
2023-04-18T06:06:35.697Z,100290.28
2023-04-18T06:09:50.423Z,100286.97
2023-04-18T06:13:05.402Z,100290.88
2023-04-18T06:16:27.606Z,100286.50
2023-04-18T06:19:43.405Z,100291.47
2023-04-18T06:22:45.674Z,100293.06
2023-04-18T06:26:00.377Z,100299.94
2023-04-18T06:29:15.437Z,100299.75
2023-04-18T06:32:24.423Z,100282.91
2023-04-18T06:35:33.013Z,100291.78
2023-04-18T06:38:47.433Z,100302.09
2023-04-18T06:41:49.466Z,100303.38
2023-04-18T06:45:04.395Z,100303.19
2023-04-18T06:48:13.421Z,100299.16
2023-04-18T06:51:22.042Z,100301.91
2023-04-18T06:58:23.427Z,100306.50
2023-04-18T07:01:32.484Z,100312.38
2023-04-18T07:04:47.498Z,100315.25
2023-04-18T07:07:56.001Z,100294.56
2023-04-18T07:11:11.453Z,100319.63
2023-04-18T07:14:20.433Z,100326.00
2023-04-18T07:17:42.482Z,100313.50
2023-04-18T07:20:57.548Z,100324.53
2023-04-18T07:24:06.523Z,100317.34
2023-04-18T07:27:21.428Z,100326.03
2023-04-18T07:30:30.431Z,100331.75
2023-04-18T07:33:39.300Z,100334.44
2023-04-18T07:36:48.445Z,100341.19
2023-04-18T07:40:03.425Z,100342.69
2023-04-18T07:43:05.544Z,100338.97
2023-04-18T07:46:20.467Z,100345.50
2023-04-18T07:49:29.679Z,100350.78
2023-04-18T07:52:39.538Z,100349.94
2023-04-18T07:55:55.735Z,100349.28
2023-04-18T07:59:10.056Z,100351.97
2023-04-18T08:02:24.520Z,100348.69
2023-04-18T08:05:34.530Z,100360.62
2023-04-18T08:08:50.423Z,100344.19
2023-04-18T08:11:52.945Z,100353.16
2023-04-18T08:15:07.443Z,100357.47
2023-04-18T08:18:15.700Z,100360.62
2023-04-18T08:21:31.460Z,100364.59
2023-04-18T08:24:41.705Z,100362.25
2023-04-18T08:27:55.809Z,100356.38
2023-04-18T08:31:10.445Z,100364.31
2023-04-18T08:34:12.331Z,100360.97
2023-04-18T08:37:27.529Z,100369.25
2023-04-18T08:40:45.208Z,100372.72
2023-04-18T08:43:48.918Z,100373.03
2023-04-18T08:47:03.504Z,100378.00
2023-04-18T08:50:06.181Z,100372.75
2023-04-18T08:53:24.712Z,100371.28
2023-04-18T08:56:35.198Z,100370.91
2023-04-18T09:11:33.429Z,100360.06
2023-04-18T09:14:48.543Z,100347.91
2023-04-18T09:18:01.639Z,100353.53
2023-04-18T09:21:24.413Z,100356.50
2023-04-18T09:24:33.026Z,100358.31
2023-04-18T09:27:41.463Z,100372.31
2023-04-18T09:31:00.490Z,100362.59
2023-04-18T09:34:02.542Z,100361.44
2023-04-18T09:37:19.431Z,100357.94
2023-04-18T09:40:34.430Z,100360.62
2023-04-18T09:43:45.336Z,100357.31
2023-04-18T09:47:00.462Z,100352.09
2023-04-18T09:50:16.460Z,100356.44
2023-04-18T09:53:32.443Z,100360.81
2023-04-18T09:56:45.962Z,100355.87
2023-04-18T09:59:59.457Z,100351.03
2023-04-18T10:03:17.488Z,100357.06
2023-04-18T10:06:26.442Z,100346.84
2023-04-18T10:09:35.284Z,100351.38
2023-04-18T10:12:45.469Z,100346.66
2023-04-18T10:16:01.469Z,100359.06
2023-04-18T10:19:29.049Z,100350.34
2023-04-18T10:22:43.427Z,100347.31
2023-04-18T10:25:52.128Z,100348.56
2023-04-18T10:29:07.413Z,100350.53
2023-04-18T10:32:24.484Z,100350.97
2023-04-18T10:35:42.460Z,100348.03
2023-04-18T10:39:15.428Z,100345.41
2023-04-18T10:42:53.445Z,100355.34
2023-04-18T10:46:30.514Z,100345.84
2023-04-18T10:50:00.464Z,100345.63
2023-04-18T10:53:09.446Z,100347.53
2023-04-18T10:56:24.460Z,100344.03
2023-04-18T10:59:26.720Z,100343.47
2023-04-18T11:02:41.620Z,100349.13
2023-04-18T11:05:57.364Z,100346.88
2023-04-18T11:09:11.345Z,100342.81
2023-04-18T11:12:26.474Z,100342.25
2023-04-18T11:15:35.463Z,100327.09
2023-04-18T11:18:57.465Z,100345.06
2023-04-18T11:22:01.049Z,100345.06
2023-04-18T11:25:15.451Z,100350.47
2023-04-18T11:28:28.973Z,100343.84
2023-04-18T11:31:37.121Z,100353.31
2023-04-18T11:34:45.473Z,100346.66
2023-04-18T11:37:54.664Z,100354.44
2023-04-18T11:41:03.448Z,100350.03
2023-04-18T11:44:18.472Z,100346.09
2023-04-18T11:47:39.574Z,100345.41
2023-04-18T11:50:54.449Z,100339.13
2023-04-18T11:54:03.627Z,100337.88
2023-04-18T11:57:34.455Z,100338.31
2023-04-18T12:00:45.461Z,100338.19
2023-04-18T12:04:14.625Z,100331.69
2023-04-18T12:07:42.687Z,100333.78
2023-04-18T12:11:00.129Z,100328.56
2023-04-18T12:14:22.728Z,100336.03
2023-04-18T12:17:46.554Z,100323.84
2023-04-18T12:20:56.483Z,100333.16
2023-04-18T12:24:14.619Z,100331.06
2023-04-18T12:27:29.472Z,100336.69
2023-04-18T12:30:44.462Z,100324.87
2023-04-18T12:33:59.469Z,100319.97
2023-04-18T12:37:14.474Z,100336.34
2023-04-18T12:40:23.469Z,100338.59
2023-04-18T12:43:38.499Z,100331.47
2023-04-18T12:46:47.078Z,100339.03
2023-04-18T12:50:01.479Z,100314.19
2023-04-18T12:53:10.268Z,100332.13
2023-04-18T12:56:25.451Z,100333.28
2023-04-18T12:59:34.992Z,100327.00
2023-04-18T13:02:44.805Z,100334.69
2023-04-18T13:06:00.488Z,100330.50
2023-04-18T13:09:09.167Z,100331.19
2023-04-18T13:12:24.512Z,100326.28
2023-04-18T13:15:39.814Z,100319.53
2023-04-18T13:18:48.818Z,100342.16
2023-04-18T13:22:06.745Z,100333.53
2023-04-18T13:25:18.487Z,100336.72
2023-04-18T13:28:35.713Z,100344.44
2023-04-18T13:39:58.470Z,100334.81
2023-04-18T13:43:07.811Z,100347.16
2023-04-18T13:46:16.523Z,100339.63
2023-04-18T13:49:31.502Z,100337.69
2023-04-18T13:52:33.455Z,100334.34
2023-04-18T13:55:49.474Z,100341.25
2023-04-18T13:58:58.094Z,100340.91
2023-04-18T14:02:14.649Z,100337.06
2023-04-18T14:05:23.262Z,100339.66
2023-04-18T14:08:31.459Z,100335.47
2023-04-18T14:11:46.539Z,100337.69
2023-04-18T14:14:55.480Z,100315.37
2023-04-18T14:18:17.551Z,100331.94
2023-04-18T14:21:32.492Z,100328.91
2023-04-18T14:24:36.086Z,100321.78
2023-04-18T14:27:55.950Z,100330.38
2023-04-18T14:31:05.539Z,100333.84
2023-04-18T14:34:14.188Z,100326.25
2023-04-18T14:37:29.502Z,100323.84
2023-04-18T14:40:32.932Z,100320.94
2023-04-18T14:43:47.510Z,100322.66
2023-04-18T14:46:49.472Z,100321.28
2023-04-18T14:50:04.516Z,100319.41
2023-04-18T14:53:07.060Z,100330.12
2023-04-18T14:56:21.482Z,100327.50
2023-04-18T14:59:36.490Z,100327.41
2023-04-18T15:02:45.408Z,100336.13
2023-04-18T15:05:53.494Z,100321.31
2023-04-18T15:09:08.475Z,100332.72
2023-04-18T15:12:17.610Z,100328.56
2023-04-18T15:15:32.498Z,100332.50
2023-04-18T15:18:47.748Z,100325.16
2023-04-18T15:21:56.496Z,100326.25
2023-04-18T15:25:05.547Z,100326.97
2023-04-18T15:28:14.497Z,100326.62
2023-04-18T15:31:23.121Z,100320.28
2023-04-18T15:34:31.500Z,100311.91
2023-04-18T15:37:40.102Z,100331.34
2023-04-18T15:40:54.485Z,100333.16
2023-04-18T15:44:12.323Z,100324.41
2023-04-18T15:47:14.449Z,100322.66
2023-04-18T15:50:32.745Z,100331.53
2023-04-18T15:53:48.492Z,100335.53
2023-04-18T15:56:57.057Z,100332.59
2023-04-18T16:00:05.510Z,100334.03
2023-04-18T16:03:14.302Z,100333.53
2023-04-18T16:06:29.492Z,100337.25
2023-04-18T16:09:32.122Z,100322.28
2023-04-18T16:12:47.482Z,100334.75
2023-04-18T16:15:55.513Z,100348.59
2023-04-18T16:19:17.985Z,100332.91
2023-04-18T16:22:26.199Z,100341.53
2023-04-18T16:25:41.488Z,100339.22
2023-04-18T16:28:57.539Z,100346.09
2023-04-18T16:31:59.495Z,100345.34
2023-04-18T16:35:15.511Z,100352.56
2023-04-18T16:38:17.656Z,100344.16
2023-04-18T16:41:32.537Z,100356.28
2023-04-18T16:44:34.554Z,100351.97
2023-04-18T16:47:49.916Z,100346.44
2023-04-18T16:50:58.525Z,100350.25
2023-04-18T16:54:07.055Z,100350.59
2023-04-18T16:57:21.691Z,100356.31
2023-04-18T17:00:30.089Z,100358.44
2023-04-18T17:03:44.871Z,100364.34
2023-04-18T17:06:59.661Z,100361.50
2023-04-18T17:10:10.020Z,100363.13
2023-04-18T17:13:27.526Z,100361.59
2023-04-18T17:16:47.769Z,100365.41
2023-04-18T17:20:10.926Z,100357.47
2023-04-18T17:23:25.879Z,100342.88
2023-04-18T17:26:27.932Z,100344.34
2023-04-18T17:29:42.514Z,100352.16
2023-04-18T17:32:44.646Z,100359.19
2023-04-18T17:35:59.705Z,100361.56
2023-04-18T17:39:14.807Z,100368.56
2023-04-18T17:42:26.550Z,100367.16
2023-04-18T17:45:35.651Z,100370.81
2023-04-18T17:48:45.002Z,100368.25
2023-04-18T17:52:05.295Z,100374.03
2023-04-18T17:55:14.772Z,100378.59
2023-04-18T17:58:23.673Z,100384.19
2023-04-18T18:01:39.052Z,100384.34
2023-04-18T18:04:42.122Z,100392.94
2023-04-18T18:07:57.520Z,100388.16
2023-04-18T18:11:07.910Z,100387.50
2023-04-18T18:14:23.898Z,100392.25
2023-04-18T18:17:25.993Z,100376.81
2023-04-18T18:20:50.949Z,100401.59
2023-04-18T18:23:59.858Z,100406.66
2023-04-18T18:27:08.715Z,100405.00
2023-04-18T18:30:24.999Z,100401.66
2023-04-18T18:33:27.517Z,100398.31
2023-04-18T18:36:43.148Z,100395.88
2023-04-18T18:39:53.441Z,100391.91
2023-04-18T18:43:02.589Z,100401.94
2023-04-18T18:46:20.370Z,100407.50
2023-04-18T18:49:23.186Z,100409.25
2023-04-18T18:52:38.989Z,100411.56
2023-04-18T18:55:47.510Z,100412.72
2023-04-18T18:59:05.133Z,100415.78
2023-04-18T19:02:15.087Z,100413.53
2023-04-18T19:05:24.064Z,100414.03
2023-04-18T19:08:39.082Z,100437.06
2023-04-18T19:11:47.357Z,100448.66
2023-04-18T19:14:57.089Z,100452.16
2023-04-18T19:18:13.075Z,100446.56
2023-04-18T19:21:23.084Z,100448.94
2023-04-18T19:24:37.988Z,100448.78
2023-04-18T19:27:46.646Z,100444.44
2023-04-18T19:31:02.006Z,100455.34
2023-04-18T19:34:10.979Z,100461.38
2023-04-18T19:37:19.990Z,100454.84
2023-04-18T19:40:37.528Z,100459.75
2023-04-18T19:43:46.609Z,100466.56
2023-04-18T19:46:57.201Z,100464.16
2023-04-18T19:50:14.130Z,100464.13
2023-04-18T19:53:31.050Z,100470.19
2023-04-18T19:56:47.085Z,100472.09
2023-04-18T20:00:03.995Z,100475.72
2023-04-18T20:03:06.373Z,100463.28
2023-04-18T20:06:23.940Z,100478.88
2023-04-18T20:09:32.941Z,100476.97
2023-04-18T20:12:43.564Z,100485.34
2023-04-18T20:15:58.975Z,100485.34
2023-04-18T20:19:21.050Z,100491.37
2023-04-18T20:22:29.875Z,100487.09
2023-04-18T20:25:40.969Z,100478.50
2023-04-18T20:28:56.963Z,100477.22
2023-04-18T20:32:12.939Z,100487.53
2023-04-18T20:35:21.662Z,100490.53
2023-04-18T20:38:36.827Z,100494.28
2023-04-18T20:41:57.041Z,100480.75
2023-04-18T20:45:06.625Z,100469.50
2023-04-18T20:48:16.653Z,100482.28
2023-04-18T20:51:26.420Z,100477.97
2023-04-18T20:54:34.870Z,100472.78
2023-04-18T20:57:49.518Z,100470.69
2023-04-18T21:00:58.549Z,100476.06
2023-04-18T21:04:13.960Z,100474.47
2023-04-18T21:07:23.079Z,100470.81
2023-04-18T21:10:31.537Z,100470.13
2023-04-18T21:13:46.541Z,100475.81
2023-04-18T21:16:54.551Z,100468.84
2023-04-18T21:20:09.974Z,100468.66
2023-04-18T21:23:24.552Z,100473.94
2023-04-18T21:26:33.113Z,100470.31
2023-04-18T21:29:41.522Z,100467.00
2023-04-18T21:32:56.537Z,100464.75
2023-04-18T21:36:04.517Z,100463.34
2023-04-18T21:39:13.381Z,100464.25
2023-04-18T21:42:21.551Z,100458.06
2023-04-18T21:45:36.562Z,100464.53
2023-04-18T21:48:50.583Z,100463.47
2023-04-18T21:52:05.526Z,100462.66
2023-04-18T21:55:14.094Z,100461.84
2023-04-18T21:58:28.527Z,100460.06
2023-04-18T22:01:30.444Z,100457.87
2023-04-18T22:04:45.542Z,100449.78
2023-04-18T22:07:57.355Z,100447.41
2023-04-18T22:11:13.618Z,100446.72
2023-04-18T22:14:22.559Z,100451.81
2023-04-18T22:17:49.542Z,100447.50
2023-04-18T22:21:04.553Z,100442.75
2023-04-18T22:24:13.275Z,100443.97
2023-04-18T22:27:21.543Z,100449.34
2023-04-18T22:30:31.307Z,100445.34
2023-04-18T22:33:46.596Z,100436.00
2023-04-18T22:36:55.212Z,100433.59
2023-04-18T22:40:03.572Z,100425.91
2023-04-18T22:43:20.581Z,100433.19
2023-04-18T22:46:29.177Z,100429.69
2023-04-18T22:49:43.541Z,100428.62
2023-04-18T22:52:59.560Z,100432.41
2023-04-18T22:56:01.425Z,100421.13
2023-04-18T22:59:16.564Z,100411.28
2023-04-18T23:02:19.025Z,100412.66
2023-04-18T23:05:34.601Z,100404.09
2023-04-18T23:08:49.566Z,100407.72
2023-04-18T23:11:58.560Z,100404.72
2023-04-18T23:15:14.558Z,100396.13
2023-04-18T23:18:29.564Z,100400.75
2023-04-18T23:21:37.844Z,100400.25
2023-04-18T23:24:53.575Z,100396.75
2023-04-18T23:28:01.635Z,100381.62
2023-04-18T23:31:16.591Z,100391.38
2023-04-18T23:34:25.550Z,100383.56
2023-04-18T23:37:40.572Z,100385.66
2023-04-18T23:40:42.583Z,100362.34
2023-04-18T23:43:57.571Z,100370.31
2023-04-18T23:47:05.645Z,100363.03
2023-04-18T23:50:21.056Z,100359.06
2023-04-18T23:53:29.547Z,100358.41
2023-04-18T23:56:38.128Z,100361.44
2023-04-18T23:59:52.568Z,100355.72
